Mirassol, Brazil
Current Conditions -  °F | °C
As of 12:00 PM on Wednesday 26 Nov 2014 (Local Time) from SBSR Reporting Station
Overcast Overcast  
Wind Chill: 79°   Ceiling: 2500
Heat Index: 81°   Visibility: 6mi
Dew Point: 68°   Wind: 7mph
Humidity: 69%   Direction: 20°NNE
Pressure: 29.91"   Gusts: NA
Location:  20.82°S, 49.52°W
Report Text: SBSR 261400Z 02006KT 9999 FEW012 BKN025 OVC080 26/20 Q1013
Loading
Personal Weather Stations






























Interactive Weather Map New forecast layout! Learn more

10-Day Weather Forecast

Advertisements
Track Severe Weather on mobile